createdAt,value
2022-10-15T07:34:00.418Z,0.4
2022-10-15T07:39:00.324Z,0.4
2022-10-15T07:44:00.296Z,0.9
2022-10-15T07:49:00.246Z,0.9
2022-10-15T07:53:59.596Z,1.2
2022-10-15T07:59:00.277Z,1.2
2022-10-15T08:04:00.296Z,1.1
2022-10-15T08:09:00.145Z,1.1
2022-10-15T08:13:59.817Z,1.2
2022-10-15T08:19:00.327Z,1.2
2022-10-15T08:24:00.224Z,1.3
2022-10-15T08:28:59.678Z,1.3
2022-10-15T08:34:00.367Z,0.9
2022-10-15T08:39:00.101Z,0.9
2022-10-15T08:43:59.679Z,1.3
2022-10-15T08:49:00.266Z,1.3
2022-10-15T08:53:59.695Z,0.9
2022-10-15T08:58:59.635Z,0.9
2022-10-15T09:03:59.602Z,1.3
2022-10-15T09:09:00.341Z,1.3
2022-10-15T09:14:00.309Z,1.3
2022-10-15T09:18:59.987Z,1.3
2022-10-15T09:24:00.081Z,1.4
2022-10-15T09:28:59.921Z,1.4
2022-10-15T09:33:59.640Z,1.8
2022-10-15T09:39:00.351Z,1.8
2022-10-15T09:44:00.185Z,1.2
2022-10-15T09:49:00.248Z,1.2
2022-10-15T09:54:00.426Z,1.2
2022-10-15T09:59:00.429Z,1.2
2022-10-15T10:03:59.685Z,1.1
2022-10-15T10:09:00.199Z,1.1
2022-10-15T10:14:00.560Z,1.8
2022-10-15T10:19:00.202Z,1.8
2022-10-15T10:24:00.195Z,1.3
2022-10-15T10:29:04.958Z,1.3
2022-10-15T10:33:59.987Z,1.3
2022-10-15T10:38:59.889Z,1.3
2022-10-15T10:44:00.449Z,1.8
2022-10-15T10:49:00.113Z,1.8
2022-10-15T10:54:00.097Z,1.3
2022-10-15T10:58:59.953Z,1.3
2022-10-15T11:03:59.730Z,1.3
2022-10-15T11:08:59.876Z,1.3
2022-10-15T11:13:59.647Z,1.3
2022-10-15T11:19:06.182Z,1.3
2022-10-15T11:24:00.740Z,1.3
2022-10-15T11:29:00.057Z,1.3
2022-10-15T11:33:59.931Z,1.3
2022-10-15T11:39:00.340Z,1.3
2022-10-15T11:44:00.150Z,1.7
2022-10-15T11:48:59.790Z,1.7
2022-10-15T11:54:00.511Z,1.4
2022-10-15T11:59:00.080Z,1.4
2022-10-15T12:03:59.687Z,1.3
2022-10-15T12:09:00.415Z,1.3
2022-10-15T12:14:00.497Z,1.2
2022-10-15T12:19:00.000Z,1.2
2022-10-15T12:24:00.111Z,1.3
2022-10-15T12:29:02.283Z,1.3
2022-10-15T12:33:59.836Z,1.3
2022-10-15T12:38:59.807Z,1.3
2022-10-15T12:44:00.616Z,2.2
2022-10-15T12:49:00.143Z,2.2
2022-10-15T12:54:00.121Z,2.2
2022-10-15T12:59:00.008Z,2.2
2022-10-15T13:03:59.820Z,1.8
2022-10-15T13:08:59.955Z,1.8
2022-10-15T13:14:00.545Z,1.8
2022-10-15T13:18:59.986Z,1.8
2022-10-15T13:24:00.586Z,1.8
2022-10-15T13:29:00.489Z,1.8
2022-10-15T13:34:00.263Z,1.8
2022-10-15T13:39:01.059Z,1.8
2022-10-15T13:44:00.014Z,2.2
2022-10-15T13:48:59.897Z,2.2
2022-10-15T13:54:00.570Z,1.3
2022-10-15T13:59:00.474Z,1.3
2022-10-15T14:04:00.300Z,1.8
2022-10-15T14:09:00.053Z,1.8
2022-10-15T14:13:59.910Z,1.5
2022-10-15T14:19:00.012Z,1.5
2022-10-15T14:24:00.245Z,1.5
2022-10-15T14:29:00.164Z,1.5
2022-10-15T14:34:00.531Z,1.3
2022-10-15T14:39:00.071Z,1.3
2022-10-15T14:44:00.575Z,0.9
2022-10-15T14:49:00.178Z,0.9
2022-10-15T14:54:00.173Z,1.3
2022-10-15T14:58:59.751Z,1.3
2022-10-15T15:04:00.539Z,0.9
2022-10-15T15:09:00.637Z,0.9
2022-10-15T15:13:59.719Z,0.9
2022-10-15T15:19:00.755Z,0.9
2022-10-15T15:23:59.810Z,0.9
2022-10-15T15:29:00.650Z,0.9
2022-10-15T15:34:00.661Z,1
2022-10-15T15:39:00.402Z,1
2022-10-15T15:44:00.330Z,1.3
2022-10-15T15:48:59.972Z,1.3
2022-10-15T15:54:00.604Z,0.9
2022-10-15T15:59:00.484Z,0.9
2022-10-15T16:04:00.777Z,0.9
2022-10-15T16:09:00.252Z,0.9
2022-10-15T16:14:00.134Z,0.6
2022-10-15T16:19:00.690Z,0.6
2022-10-15T16:29:00.385Z,0.9
2022-10-15T16:34:00.854Z,0.4
2022-10-15T16:39:00.002Z,0.4
2022-10-15T16:44:00.628Z,0
2022-10-15T16:49:00.192Z,0
2022-10-15T16:53:59.984Z,0
2022-10-15T16:59:00.746Z,0
2022-10-15T17:04:00.468Z,0.4
2022-10-15T17:09:00.136Z,0.4
2022-10-15T17:13:59.801Z,0.4
2022-10-15T17:19:00.299Z,0.4
2022-10-15T17:23:59.875Z,0.4
2022-10-15T17:29:00.685Z,0.4
2022-10-15T17:34:00.493Z,0.8
2022-10-15T17:39:00.559Z,0.8
2022-10-15T17:44:00.077Z,0.9
2022-10-15T17:49:00.615Z,0.9
2022-10-15T17:54:00.423Z,0.7
2022-10-15T17:59:00.025Z,0.7
2022-10-15T18:04:00.338Z,0.4
2022-10-15T18:08:59.892Z,0.4
2022-10-15T18:14:00.203Z,0.9
2022-10-15T18:19:00.608Z,0.9
2022-10-15T18:24:00.070Z,0.9
2022-10-15T18:29:00.504Z,0.9
2022-10-15T18:34:00.011Z,1.3
2022-10-15T18:39:00.858Z,1.3
2022-10-15T18:44:00.544Z,0.9
2022-10-15T18:49:00.263Z,0.9
2022-10-15T18:54:00.158Z,1.3
2022-10-15T18:59:00.904Z,1.3
2022-10-15T19:04:00.741Z,1.6
2022-10-15T19:09:00.032Z,1.6
2022-10-15T19:14:00.598Z,1.3
2022-10-15T19:19:00.376Z,1.3
2022-10-15T19:24:00.310Z,1.3
2022-10-15T19:29:00.203Z,1.3
2022-10-15T19:34:00.175Z,1.8
2022-10-15T19:39:00.881Z,1.8
2022-10-15T19:44:00.373Z,1.3
2022-10-15T19:48:59.949Z,1.3
2022-10-15T19:54:00.637Z,1
2022-10-15T19:59:00.099Z,1
2022-10-15T20:04:04.819Z,0.9
2022-10-15T20:09:00.055Z,0.9
2022-10-15T20:14:00.454Z,0.9
2022-10-15T20:19:00.911Z,0.9
2022-10-15T20:24:00.473Z,0.9
2022-10-15T20:29:00.066Z,0.9
2022-10-15T20:34:00.956Z,0.9
2022-10-15T20:39:00.985Z,0.9
2022-10-15T20:44:00.669Z,0.9
2022-10-15T20:49:02.283Z,0.9
2022-10-15T20:54:00.309Z,0.9
2022-10-15T20:59:00.684Z,0.9
2022-10-15T21:04:00.130Z,1.3
2022-10-15T21:09:00.439Z,1.3
2022-10-15T21:14:00.659Z,1
2022-10-15T21:19:00.446Z,1
2022-10-15T21:24:01.117Z,1.7
2022-10-15T21:29:01.042Z,1.7
2022-10-15T21:34:00.763Z,2.6
2022-10-15T21:39:00.366Z,2.6
2022-10-15T21:44:00.468Z,2.2
2022-10-15T21:49:00.827Z,2.2
2022-10-15T21:54:00.605Z,2.7
2022-10-15T21:59:00.873Z,2.7
2022-10-15T22:04:00.792Z,2.2
2022-10-15T22:09:00.686Z,2.2
2022-10-15T22:14:00.493Z,2
2022-10-15T22:19:01.007Z,2
2022-10-15T22:24:00.713Z,2.3
2022-10-15T22:29:00.804Z,2.3
2022-10-15T22:34:00.403Z,2.6
2022-10-15T22:39:00.798Z,2.6
2022-10-15T22:44:01.055Z,2.3
2022-10-15T22:49:00.421Z,2.3
2022-10-15T22:54:00.974Z,2
2022-10-15T22:59:00.379Z,2
2022-10-15T23:04:00.028Z,1.3
2022-10-15T23:09:00.662Z,1.3
2022-10-15T23:14:00.336Z,0.9
2022-10-15T23:19:00.786Z,0.9
2022-10-15T23:24:00.313Z,0.9
2022-10-15T23:29:00.336Z,0.9
2022-10-15T23:34:00.897Z,0.9
2022-10-15T23:39:00.372Z,0.9
2022-10-15T23:44:00.986Z,0.4
2022-10-15T23:49:00.345Z,0.4
2022-10-15T23:54:00.682Z,0.4
2022-10-15T23:59:01.089Z,0.4
